sensor_id;sensor_type;location;lat;lon;timestamp;P1;durP1;ratioP1;P2;durP2;ratioP2
70150;SDS011;57517;43.562;19.540;2022-12-08T00:01:12;54.53;;;44.35;;
70150;SDS011;57517;43.562;19.540;2022-12-08T00:03:39;55.55;;;42.20;;
70150;SDS011;57517;43.562;19.540;2022-12-08T00:06:05;55.85;;;40.40;;
70150;SDS011;57517;43.562;19.540;2022-12-08T00:08:50;56.65;;;42.92;;
70150;SDS011;57517;43.562;19.540;2022-12-08T00:11:35;61.80;;;40.87;;
70150;SDS011;57517;43.562;19.540;2022-12-08T00:14:01;58.70;;;42.83;;
70150;SDS011;57517;43.562;19.540;2022-12-08T00:16:27;50.60;;;38.95;;
70150;SDS011;57517;43.562;19.540;2022-12-08T00:18:53;52.78;;;41.42;;
70150;SDS011;57517;43.562;19.540;2022-12-08T00:21:18;57.80;;;43.72;;
70150;SDS011;57517;43.562;19.540;2022-12-08T00:23:44;55.45;;;42.28;;
70150;SDS011;57517;43.562;19.540;2022-12-08T00:26:10;48.70;;;38.15;;
70150;SDS011;57517;43.562;19.540;2022-12-08T00:28:36;55.80;;;41.88;;
70150;SDS011;57517;43.562;19.540;2022-12-08T00:31:11;54.75;;;41.25;;
70150;SDS011;57517;43.562;19.540;2022-12-08T00:33:37;58.22;;;44.35;;
70150;SDS011;57517;43.562;19.540;2022-12-08T00:36:12;57.42;;;43.15;;
70150;SDS011;57517;43.562;19.540;2022-12-08T00:38:39;57.88;;;43.38;;
70150;SDS011;57517;43.562;19.540;2022-12-08T00:41:07;53.05;;;40.55;;
70150;SDS011;57517;43.562;19.540;2022-12-08T00:43:37;47.58;;;36.60;;
70150;SDS011;57517;43.562;19.540;2022-12-08T00:46:02;49.92;;;36.47;;
70150;SDS011;57517;43.562;19.540;2022-12-08T00:48:28;51.88;;;40.03;;
70150;SDS011;57517;43.562;19.540;2022-12-08T00:50:54;52.47;;;39.92;;
70150;SDS011;57517;43.562;19.540;2022-12-08T00:53:20;50.65;;;35.92;;
70150;SDS011;57517;43.562;19.540;2022-12-08T00:55:46;45.50;;;34.75;;
70150;SDS011;57517;43.562;19.540;2022-12-08T00:58:11;40.83;;;32.15;;
70150;SDS011;57517;43.562;19.540;2022-12-08T01:00:39;42.28;;;33.35;;
70150;SDS011;57517;43.562;19.540;2022-12-08T01:03:08;57.72;;;42.50;;
70150;SDS011;57517;43.562;19.540;2022-12-08T01:05:34;47.15;;;38.92;;
70150;SDS011;57517;43.562;19.540;2022-12-08T01:08:00;40.15;;;32.45;;
70150;SDS011;57517;43.562;19.540;2022-12-08T01:10:26;37.50;;;30.30;;
70150;SDS011;57517;43.562;19.540;2022-12-08T01:12:51;39.72;;;30.50;;
70150;SDS011;57517;43.562;19.540;2022-12-08T01:15:17;39.50;;;31.40;;
70150;SDS011;57517;43.562;19.540;2022-12-08T01:17:43;39.80;;;30.15;;
70150;SDS011;57517;43.562;19.540;2022-12-08T01:20:09;41.28;;;32.97;;
70150;SDS011;57517;43.562;19.540;2022-12-08T01:22:35;39.95;;;31.17;;
70150;SDS011;57517;43.562;19.540;2022-12-08T01:25:01;49.72;;;37.15;;
70150;SDS011;57517;43.562;19.540;2022-12-08T01:27:27;48.30;;;39.03;;
70150;SDS011;57517;43.562;19.540;2022-12-08T01:29:53;54.85;;;43.22;;
70150;SDS011;57517;43.562;19.540;2022-12-08T01:32:19;54.90;;;41.35;;
70150;SDS011;57517;43.562;19.540;2022-12-08T01:34:45;50.95;;;40.03;;
70150;SDS011;57517;43.562;19.540;2022-12-08T01:37:10;59.10;;;43.97;;
70150;SDS011;57517;43.562;19.540;2022-12-08T01:39:36;55.50;;;44.38;;
70150;SDS011;57517;43.562;19.540;2022-12-08T01:42:02;53.22;;;42.00;;
70150;SDS011;57517;43.562;19.540;2022-12-08T01:46:54;52.00;;;38.55;;
70150;SDS011;57517;43.562;19.540;2022-12-08T01:49:24;43.65;;;33.75;;
70150;SDS011;57517;43.562;19.540;2022-12-08T01:54:37;45.92;;;31.17;;
70150;SDS011;57517;43.562;19.540;2022-12-08T01:57:22;36.58;;;27.50;;
70150;SDS011;57517;43.562;19.540;2022-12-08T02:00:03;31.60;;;26.35;;
70150;SDS011;57517;43.562;19.540;2022-12-08T02:02:33;29.42;;;22.02;;
70150;SDS011;57517;43.562;19.540;2022-12-08T02:05:16;22.83;;;19.98;;
70150;SDS011;57517;43.562;19.540;2022-12-08T02:07:44;23.30;;;18.00;;
70150;SDS011;57517;43.562;19.540;2022-12-08T02:10:13;28.33;;;23.00;;
70150;SDS011;57517;43.562;19.540;2022-12-08T02:12:41;28.38;;;20.30;;
70150;SDS011;57517;43.562;19.540;2022-12-08T02:15:07;26.05;;;19.60;;
70150;SDS011;57517;43.562;19.540;2022-12-08T02:22:48;27.15;;;21.30;;
70150;SDS011;57517;43.562;19.540;2022-12-08T02:25:39;27.67;;;21.77;;
70150;SDS011;57517;43.562;19.540;2022-12-08T02:28:27;25.13;;;20.27;;
70150;SDS011;57517;43.562;19.540;2022-12-08T02:34:43;22.70;;;17.58;;
70150;SDS011;57517;43.562;19.540;2022-12-08T02:37:07;20.52;;;17.25;;
70150;SDS011;57517;43.562;19.540;2022-12-08T02:39:43;25.65;;;19.92;;
70150;SDS011;57517;43.562;19.540;2022-12-08T02:47:51;30.90;;;25.08;;
70150;SDS011;57517;43.562;19.540;2022-12-08T02:50:17;29.63;;;22.48;;
70150;SDS011;57517;43.562;19.540;2022-12-08T02:52:45;25.92;;;19.20;;
70150;SDS011;57517;43.562;19.540;2022-12-08T03:00:15;21.10;;;16.92;;
70150;SDS011;57517;43.562;19.540;2022-12-08T03:11:09;18.98;;;15.30;;
70150;SDS011;57517;43.562;19.540;2022-12-08T03:13:45;19.25;;;15.35;;
70150;SDS011;57517;43.562;19.540;2022-12-08T03:16:23;16.38;;;12.48;;
70150;SDS011;57517;43.562;19.540;2022-12-08T03:19:01;18.05;;;13.52;;
70150;SDS011;57517;43.562;19.540;2022-12-08T03:21:35;17.30;;;13.23;;
70150;SDS011;57517;43.562;19.540;2022-12-08T03:24:03;17.85;;;13.32;;
70150;SDS011;57517;43.562;19.540;2022-12-08T03:29:21;16.85;;;13.13;;
70150;SDS011;57517;43.562;19.540;2022-12-08T03:31:53;16.25;;;13.88;;
70150;SDS011;57517;43.562;19.540;2022-12-08T03:34:22;17.90;;;14.38;;
70150;SDS011;57517;43.562;19.540;2022-12-08T03:36:51;20.13;;;14.40;;
70150;SDS011;57517;43.562;19.540;2022-12-08T03:39:17;17.83;;;13.80;;
70150;SDS011;57517;43.562;19.540;2022-12-08T03:41:43;18.08;;;13.23;;
70150;SDS011;57517;43.562;19.540;2022-12-08T03:44:10;18.20;;;14.60;;
70150;SDS011;57517;43.562;19.540;2022-12-08T03:46:36;18.83;;;14.55;;
70150;SDS011;57517;43.562;19.540;2022-12-08T03:49:02;17.42;;;13.18;;
70150;SDS011;57517;43.562;19.540;2022-12-08T03:51:28;17.88;;;12.80;;
70150;SDS011;57517;43.562;19.540;2022-12-08T03:53:54;13.98;;;11.38;;
70150;SDS011;57517;43.562;19.540;2022-12-08T03:58:54;16.33;;;11.90;;
70150;SDS011;57517;43.562;19.540;2022-12-08T04:01:20;14.77;;;11.63;;
70150;SDS011;57517;43.562;19.540;2022-12-08T04:03:47;14.20;;;11.38;;
70150;SDS011;57517;43.562;19.540;2022-12-08T04:06:13;14.02;;;10.80;;
70150;SDS011;57517;43.562;19.540;2022-12-08T04:08:39;13.48;;;10.98;;
70150;SDS011;57517;43.562;19.540;2022-12-08T04:11:05;15.30;;;11.27;;
70150;SDS011;57517;43.562;19.540;2022-12-08T04:13:35;15.35;;;11.95;;
70150;SDS011;57517;43.562;19.540;2022-12-08T04:16:02;16.40;;;12.27;;
70150;SDS011;57517;43.562;19.540;2022-12-08T04:18:29;14.85;;;11.98;;
70150;SDS011;57517;43.562;19.540;2022-12-08T04:20:55;20.42;;;13.52;;
70150;SDS011;57517;43.562;19.540;2022-12-08T04:23:20;19.90;;;15.23;;
70150;SDS011;57517;43.562;19.540;2022-12-08T04:25:46;20.98;;;15.40;;
70150;SDS011;57517;43.562;19.540;2022-12-08T04:28:12;18.30;;;13.85;;
70150;SDS011;57517;43.562;19.540;2022-12-08T04:30:38;17.73;;;13.23;;
70150;SDS011;57517;43.562;19.540;2022-12-08T04:33:04;15.32;;;12.52;;
70150;SDS011;57517;43.562;19.540;2022-12-08T04:35:30;15.23;;;11.70;;
70150;SDS011;57517;43.562;19.540;2022-12-08T04:37:56;17.55;;;12.55;;
70150;SDS011;57517;43.562;19.540;2022-12-08T04:40:21;15.60;;;11.55;;
70150;SDS011;57517;43.562;19.540;2022-12-08T04:42:47;16.33;;;12.32;;
70150;SDS011;57517;43.562;19.540;2022-12-08T04:45:13;17.70;;;12.23;;
70150;SDS011;57517;43.562;19.540;2022-12-08T04:47:40;17.23;;;13.68;;
70150;SDS011;57517;43.562;19.540;2022-12-08T04:50:06;23.23;;;13.27;;
70150;SDS011;57517;43.562;19.540;2022-12-08T04:52:33;19.00;;;14.25;;
70150;SDS011;57517;43.562;19.540;2022-12-08T04:54:59;19.42;;;13.55;;
70150;SDS011;57517;43.562;19.540;2022-12-08T04:57:25;19.20;;;14.10;;
70150;SDS011;57517;43.562;19.540;2022-12-08T04:59:51;18.35;;;14.18;;
70150;SDS011;57517;43.562;19.540;2022-12-08T05:02:17;20.08;;;14.68;;
70150;SDS011;57517;43.562;19.540;2022-12-08T05:04:42;22.90;;;16.00;;
70150;SDS011;57517;43.562;19.540;2022-12-08T05:07:08;22.23;;;16.60;;
70150;SDS011;57517;43.562;19.540;2022-12-08T05:09:34;21.65;;;15.70;;
70150;SDS011;57517;43.562;19.540;2022-12-08T05:12:00;24.02;;;16.98;;
70150;SDS011;57517;43.562;19.540;2022-12-08T05:14:26;19.92;;;15.32;;
70150;SDS011;57517;43.562;19.540;2022-12-08T05:16:51;19.60;;;13.70;;
70150;SDS011;57517;43.562;19.540;2022-12-08T05:19:17;18.25;;;13.23;;
70150;SDS011;57517;43.562;19.540;2022-12-08T05:21:43;18.35;;;13.02;;
70150;SDS011;57517;43.562;19.540;2022-12-08T05:24:09;15.38;;;11.68;;
70150;SDS011;57517;43.562;19.540;2022-12-08T05:26:35;14.05;;;10.80;;
70150;SDS011;57517;43.562;19.540;2022-12-08T05:29:00;14.75;;;11.38;;
70150;SDS011;57517;43.562;19.540;2022-12-08T05:31:26;17.83;;;12.52;;
70150;SDS011;57517;43.562;19.540;2022-12-08T05:33:52;15.10;;;11.55;;
70150;SDS011;57517;43.562;19.540;2022-12-08T05:36:18;16.42;;;12.77;;
70150;SDS011;57517;43.562;19.540;2022-12-08T05:38:55;28.23;;;21.23;;
70150;SDS011;57517;43.562;19.540;2022-12-08T05:41:22;25.63;;;18.73;;
70150;SDS011;57517;43.562;19.540;2022-12-08T05:43:48;25.98;;;19.52;;
70150;SDS011;57517;43.562;19.540;2022-12-08T05:46:14;27.05;;;20.10;;
70150;SDS011;57517;43.562;19.540;2022-12-08T05:48:40;24.33;;;18.88;;
70150;SDS011;57517;43.562;19.540;2022-12-08T05:51:06;27.23;;;22.35;;
70150;SDS011;57517;43.562;19.540;2022-12-08T05:53:40;25.08;;;20.58;;
70150;SDS011;57517;43.562;19.540;2022-12-08T05:56:06;34.88;;;27.83;;
70150;SDS011;57517;43.562;19.540;2022-12-08T05:58:31;34.10;;;26.52;;
70150;SDS011;57517;43.562;19.540;2022-12-08T06:00:57;26.75;;;23.17;;
70150;SDS011;57517;43.562;19.540;2022-12-08T06:03:23;21.63;;;17.55;;
70150;SDS011;57517;43.562;19.540;2022-12-08T06:05:49;21.33;;;18.25;;
70150;SDS011;57517;43.562;19.540;2022-12-08T06:08:15;22.58;;;16.45;;
70150;SDS011;57517;43.562;19.540;2022-12-08T06:10:41;21.98;;;15.95;;
70150;SDS011;57517;43.562;19.540;2022-12-08T06:13:08;21.50;;;15.73;;
70150;SDS011;57517;43.562;19.540;2022-12-08T06:15:34;25.70;;;15.50;;
70150;SDS011;57517;43.562;19.540;2022-12-08T06:18:01;21.88;;;15.63;;
70150;SDS011;57517;43.562;19.540;2022-12-08T06:20:27;23.45;;;16.75;;
70150;SDS011;57517;43.562;19.540;2022-12-08T06:22:53;20.63;;;16.58;;
70150;SDS011;57517;43.562;19.540;2022-12-08T06:25:19;24.88;;;19.08;;
70150;SDS011;57517;43.562;19.540;2022-12-08T06:27:46;34.42;;;26.20;;
70150;SDS011;57517;43.562;19.540;2022-12-08T06:30:12;36.97;;;19.60;;
70150;SDS011;57517;43.562;19.540;2022-12-08T06:32:38;29.58;;;21.35;;
70150;SDS011;57517;43.562;19.540;2022-12-08T06:35:04;29.95;;;21.38;;
70150;SDS011;57517;43.562;19.540;2022-12-08T06:37:30;32.20;;;22.13;;
70150;SDS011;57517;43.562;19.540;2022-12-08T06:39:56;24.38;;;20.13;;
70150;SDS011;57517;43.562;19.540;2022-12-08T06:42:22;31.88;;;26.52;;
70150;SDS011;57517;43.562;19.540;2022-12-08T06:45:06;37.75;;;28.08;;
70150;SDS011;57517;43.562;19.540;2022-12-08T06:47:33;31.70;;;22.40;;
70150;SDS011;57517;43.562;19.540;2022-12-08T06:49:59;27.30;;;20.35;;
70150;SDS011;57517;43.562;19.540;2022-12-08T06:52:24;25.48;;;18.83;;
70150;SDS011;57517;43.562;19.540;2022-12-08T06:54:50;26.33;;;19.77;;
70150;SDS011;57517;43.562;19.540;2022-12-08T06:57:16;20.63;;;14.10;;
70150;SDS011;57517;43.562;19.540;2022-12-08T06:59:42;16.33;;;12.77;;
70150;SDS011;57517;43.562;19.540;2022-12-08T07:02:08;21.30;;;14.73;;
70150;SDS011;57517;43.562;19.540;2022-12-08T07:04:35;24.20;;;18.08;;
70150;SDS011;57517;43.562;19.540;2022-12-08T07:07:01;25.75;;;18.92;;
70150;SDS011;57517;43.562;19.540;2022-12-08T07:09:27;29.60;;;24.20;;
70150;SDS011;57517;43.562;19.540;2022-12-08T07:11:53;31.85;;;26.45;;
70150;SDS011;57517;43.562;19.540;2022-12-08T07:14:19;43.30;;;35.97;;
70150;SDS011;57517;43.562;19.540;2022-12-08T07:16:49;49.83;;;40.63;;
70150;SDS011;57517;43.562;19.540;2022-12-08T07:19:15;34.60;;;29.02;;
70150;SDS011;57517;43.562;19.540;2022-12-08T07:21:41;37.15;;;29.92;;
70150;SDS011;57517;43.562;19.540;2022-12-08T07:24:07;37.10;;;29.50;;
70150;SDS011;57517;43.562;19.540;2022-12-08T07:26:33;36.95;;;27.08;;
70150;SDS011;57517;43.562;19.540;2022-12-08T07:28:59;33.05;;;26.60;;
70150;SDS011;57517;43.562;19.540;2022-12-08T07:31:25;40.42;;;30.20;;
70150;SDS011;57517;43.562;19.540;2022-12-08T07:33:52;34.70;;;27.17;;
70150;SDS011;57517;43.562;19.540;2022-12-08T07:36:19;35.08;;;27.65;;
70150;SDS011;57517;43.562;19.540;2022-12-08T07:38:45;36.85;;;27.73;;
70150;SDS011;57517;43.562;19.540;2022-12-08T07:41:12;35.67;;;28.02;;
70150;SDS011;57517;43.562;19.540;2022-12-08T07:43:38;35.90;;;29.08;;
70150;SDS011;57517;43.562;19.540;2022-12-08T07:46:05;37.00;;;28.92;;
70150;SDS011;57517;43.562;19.540;2022-12-08T07:48:30;39.75;;;28.95;;
70150;SDS011;57517;43.562;19.540;2022-12-08T07:51:02;29.30;;;25.38;;
70150;SDS011;57517;43.562;19.540;2022-12-08T07:53:29;37.20;;;28.52;;
70150;SDS011;57517;43.562;19.540;2022-12-08T07:55:55;36.88;;;28.15;;
70150;SDS011;57517;43.562;19.540;2022-12-08T07:58:21;31.25;;;26.38;;
70150;SDS011;57517;43.562;19.540;2022-12-08T08:00:47;35.72;;;28.25;;
70150;SDS011;57517;43.562;19.540;2022-12-08T08:03:13;42.15;;;32.60;;
70150;SDS011;57517;43.562;19.540;2022-12-08T08:05:39;35.15;;;28.80;;
70150;SDS011;57517;43.562;19.540;2022-12-08T08:08:05;34.25;;;28.08;;
70150;SDS011;57517;43.562;19.540;2022-12-08T08:10:31;40.05;;;30.23;;
70150;SDS011;57517;43.562;19.540;2022-12-08T08:12:57;39.90;;;29.80;;
70150;SDS011;57517;43.562;19.540;2022-12-08T08:15:24;35.22;;;27.35;;
70150;SDS011;57517;43.562;19.540;2022-12-08T08:17:50;59.85;;;53.75;;
70150;SDS011;57517;43.562;19.540;2022-12-08T08:20:16;43.13;;;38.58;;
70150;SDS011;57517;43.562;19.540;2022-12-08T08:22:44;36.88;;;30.95;;
70150;SDS011;57517;43.562;19.540;2022-12-08T08:25:11;29.60;;;22.70;;
70150;SDS011;57517;43.562;19.540;2022-12-08T08:27:38;29.73;;;23.98;;
70150;SDS011;57517;43.562;19.540;2022-12-08T08:30:04;25.40;;;15.80;;
70150;SDS011;57517;43.562;19.540;2022-12-08T08:32:32;26.13;;;18.90;;
70150;SDS011;57517;43.562;19.540;2022-12-08T08:34:58;24.65;;;20.48;;
70150;SDS011;57517;43.562;19.540;2022-12-08T08:37:24;35.55;;;28.92;;
70150;SDS011;57517;43.562;19.540;2022-12-08T08:39:50;24.40;;;18.27;;
70150;SDS011;57517;43.562;19.540;2022-12-08T08:42:16;22.08;;;17.45;;
70150;SDS011;57517;43.562;19.540;2022-12-08T08:44:42;25.20;;;18.70;;
70150;SDS011;57517;43.562;19.540;2022-12-08T08:47:07;24.40;;;17.48;;
70150;SDS011;57517;43.562;19.540;2022-12-08T08:49:33;21.30;;;16.42;;
70150;SDS011;57517;43.562;19.540;2022-12-08T08:51:59;21.90;;;15.30;;
70150;SDS011;57517;43.562;19.540;2022-12-08T08:54:27;35.00;;;27.08;;
70150;SDS011;57517;43.562;19.540;2022-12-08T08:56:53;40.05;;;31.40;;
70150;SDS011;57517;43.562;19.540;2022-12-08T08:59:18;30.55;;;23.90;;
70150;SDS011;57517;43.562;19.540;2022-12-08T09:01:44;34.75;;;30.90;;
70150;SDS011;57517;43.562;19.540;2022-12-08T09:04:10;43.47;;;38.95;;
70150;SDS011;57517;43.562;19.540;2022-12-08T09:06:36;25.35;;;21.70;;
70150;SDS011;57517;43.562;19.540;2022-12-08T09:09:02;23.35;;;18.92;;
70150;SDS011;57517;43.562;19.540;2022-12-08T09:11:28;26.90;;;21.98;;
70150;SDS011;57517;43.562;19.540;2022-12-08T09:13:54;29.83;;;25.02;;
70150;SDS011;57517;43.562;19.540;2022-12-08T09:16:19;29.65;;;25.95;;
70150;SDS011;57517;43.562;19.540;2022-12-08T09:18:45;31.08;;;25.58;;
70150;SDS011;57517;43.562;19.540;2022-12-08T09:21:13;33.67;;;27.15;;
70150;SDS011;57517;43.562;19.540;2022-12-08T09:23:44;38.17;;;31.02;;
70150;SDS011;57517;43.562;19.540;2022-12-08T09:26:10;42.90;;;33.22;;
70150;SDS011;57517;43.562;19.540;2022-12-08T09:28:36;40.50;;;35.17;;
70150;SDS011;57517;43.562;19.540;2022-12-08T09:31:02;43.55;;;36.13;;
70150;SDS011;57517;43.562;19.540;2022-12-08T09:33:28;63.78;;;49.90;;
70150;SDS011;57517;43.562;19.540;2022-12-08T09:35:54;56.00;;;48.42;;
70150;SDS011;57517;43.562;19.540;2022-12-08T09:38:20;54.95;;;44.88;;
70150;SDS011;57517;43.562;19.540;2022-12-08T09:40:50;57.20;;;46.85;;
70150;SDS011;57517;43.562;19.540;2022-12-08T09:46:05;50.53;;;40.17;;
70150;SDS011;57517;43.562;19.540;2022-12-08T09:48:35;46.35;;;38.33;;
70150;SDS011;57517;43.562;19.540;2022-12-08T09:51:07;40.95;;;31.95;;
70150;SDS011;57517;43.562;19.540;2022-12-08T09:53:35;40.80;;;32.28;;
70150;SDS011;57517;43.562;19.540;2022-12-08T09:56:17;35.03;;;28.23;;
70150;SDS011;57517;43.562;19.540;2022-12-08T10:01:18;37.35;;;30.38;;
70150;SDS011;57517;43.562;19.540;2022-12-08T10:03:45;42.47;;;33.03;;
70150;SDS011;57517;43.562;19.540;2022-12-08T10:06:24;32.72;;;26.60;;
70150;SDS011;57517;43.562;19.540;2022-12-08T10:12:01;39.53;;;30.13;;
70150;SDS011;57517;43.562;19.540;2022-12-08T10:17:45;37.20;;;30.73;;
70150;SDS011;57517;43.562;19.540;2022-12-08T10:20:20;49.50;;;36.63;;
70150;SDS011;57517;43.562;19.540;2022-12-08T10:22:49;52.10;;;39.83;;
70150;SDS011;57517;43.562;19.540;2022-12-08T10:25:32;51.33;;;41.13;;
70150;SDS011;57517;43.562;19.540;2022-12-08T10:28:02;49.35;;;41.55;;
70150;SDS011;57517;43.562;19.540;2022-12-08T10:30:29;54.47;;;44.53;;
70150;SDS011;57517;43.562;19.540;2022-12-08T10:32:56;51.67;;;45.13;;
70150;SDS011;57517;43.562;19.540;2022-12-08T10:35:22;53.92;;;43.47;;
70150;SDS011;57517;43.562;19.540;2022-12-08T10:37:59;47.13;;;38.30;;
70150;SDS011;57517;43.562;19.540;2022-12-08T10:40:27;42.22;;;34.70;;
70150;SDS011;57517;43.562;19.540;2022-12-08T10:42:57;45.97;;;36.22;;
70150;SDS011;57517;43.562;19.540;2022-12-08T10:45:25;46.25;;;34.78;;
70150;SDS011;57517;43.562;19.540;2022-12-08T10:48:08;41.67;;;33.30;;
70150;SDS011;57517;43.562;19.540;2022-12-08T10:53:43;44.00;;;34.92;;
70150;SDS011;57517;43.562;19.540;2022-12-08T10:56:14;39.45;;;30.88;;
70150;SDS011;57517;43.562;19.540;2022-12-08T10:58:44;40.92;;;31.42;;
70150;SDS011;57517;43.562;19.540;2022-12-08T11:01:12;34.28;;;28.45;;
70150;SDS011;57517;43.562;19.540;2022-12-08T11:03:53;33.47;;;28.35;;
70150;SDS011;57517;43.562;19.540;2022-12-08T11:06:56;38.60;;;30.63;;
70150;SDS011;57517;43.562;19.540;2022-12-08T11:11:48;44.60;;;34.38;;
70150;SDS011;57517;43.562;19.540;2022-12-08T11:14:25;45.83;;;33.78;;
70150;SDS011;57517;43.562;19.540;2022-12-08T11:19:37;49.38;;;40.00;;
70150;SDS011;57517;43.562;19.540;2022-12-08T11:24:59;67.97;;;52.53;;
70150;SDS011;57517;43.562;19.540;2022-12-08T11:27:26;73.65;;;57.45;;
70150;SDS011;57517;43.562;19.540;2022-12-08T11:29:53;70.10;;;53.35;;
70150;SDS011;57517;43.562;19.540;2022-12-08T11:32:19;59.05;;;49.08;;
70150;SDS011;57517;43.562;19.540;2022-12-08T11:34:50;63.67;;;51.15;;
70150;SDS011;57517;43.562;19.540;2022-12-08T11:37:39;54.47;;;42.70;;
70150;SDS011;57517;43.562;19.540;2022-12-08T11:40:09;58.78;;;47.88;;
70150;SDS011;57517;43.562;19.540;2022-12-08T11:42:52;71.30;;;57.15;;
70150;SDS011;57517;43.562;19.540;2022-12-08T11:45:23;59.63;;;45.67;;
70150;SDS011;57517;43.562;19.540;2022-12-08T11:47:57;46.47;;;35.72;;
70150;SDS011;57517;43.562;19.540;2022-12-08T11:50:27;44.67;;;36.65;;
70150;SDS011;57517;43.562;19.540;2022-12-08T11:52:59;46.63;;;37.60;;
70150;SDS011;57517;43.562;19.540;2022-12-08T11:58:01;41.55;;;33.78;;
70150;SDS011;57517;43.562;19.540;2022-12-08T12:00:36;39.50;;;32.67;;
70150;SDS011;57517;43.562;19.540;2022-12-08T12:03:06;41.05;;;33.13;;
70150;SDS011;57517;43.562;19.540;2022-12-08T12:05:53;39.47;;;33.20;;
70150;SDS011;57517;43.562;19.540;2022-12-08T12:23:06;31.38;;;27.83;;
70150;SDS011;57517;43.562;19.540;2022-12-08T12:25:45;34.67;;;30.77;;
70150;SDS011;57517;43.562;19.540;2022-12-08T12:28:17;35.60;;;29.88;;
70150;SDS011;57517;43.562;19.540;2022-12-08T12:30:51;38.97;;;31.20;;
70150;SDS011;57517;43.562;19.540;2022-12-08T12:33:30;40.13;;;30.52;;
70150;SDS011;57517;43.562;19.540;2022-12-08T12:35:57;34.17;;;25.90;;
70150;SDS011;57517;43.562;19.540;2022-12-08T12:38:31;35.90;;;30.13;;
70150;SDS011;57517;43.562;19.540;2022-12-08T12:41:22;46.83;;;37.00;;
70150;SDS011;57517;43.562;19.540;2022-12-08T12:54:44;41.05;;;33.65;;
70150;SDS011;57517;43.562;19.540;2022-12-08T12:57:37;62.42;;;49.85;;
70150;SDS011;57517;43.562;19.540;2022-12-08T13:00:17;53.70;;;42.05;;
70150;SDS011;57517;43.562;19.540;2022-12-08T13:02:45;64.63;;;52.17;;
70150;SDS011;57517;43.562;19.540;2022-12-08T13:10:38;61.35;;;47.47;;
70150;SDS011;57517;43.562;19.540;2022-12-08T13:15:48;8.98;;;7.35;;
70150;SDS011;57517;43.562;19.540;2022-12-08T13:18:20;29.17;;;24.48;;
70150;SDS011;57517;43.562;19.540;2022-12-08T13:21:03;5.35;;;3.42;;
70150;SDS011;57517;43.562;19.540;2022-12-08T13:26:14;4.85;;;3.10;;
70150;SDS011;57517;43.562;19.540;2022-12-08T13:29:34;4.45;;;2.85;;
70150;SDS011;57517;43.562;19.540;2022-12-08T13:37:01;5.28;;;2.80;;
70150;SDS011;57517;43.562;19.540;2022-12-08T13:42:12;4.28;;;2.45;;
70150;SDS011;57517;43.562;19.540;2022-12-08T13:44:56;4.72;;;2.65;;
70150;SDS011;57517;43.562;19.540;2022-12-08T13:47:30;6.00;;;3.10;;
70150;SDS011;57517;43.562;19.540;2022-12-08T13:55:03;5.57;;;3.25;;
70150;SDS011;57517;43.562;19.540;2022-12-08T13:57:32;7.43;;;6.20;;
70150;SDS011;57517;43.562;19.540;2022-12-08T14:00:12;5.38;;;3.20;;
70150;SDS011;57517;43.562;19.540;2022-12-08T14:02:41;7.28;;;4.95;;
70150;SDS011;57517;43.562;19.540;2022-12-08T14:05:09;7.75;;;5.53;;
70150;SDS011;57517;43.562;19.540;2022-12-08T14:07:36;9.68;;;5.97;;
70150;SDS011;57517;43.562;19.540;2022-12-08T14:10:13;8.10;;;5.82;;
70150;SDS011;57517;43.562;19.540;2022-12-08T14:12:44;5.40;;;4.03;;
70150;SDS011;57517;43.562;19.540;2022-12-08T14:15:15;10.07;;;6.20;;
70150;SDS011;57517;43.562;19.540;2022-12-08T14:17:49;10.88;;;6.70;;
70150;SDS011;57517;43.562;19.540;2022-12-08T14:20:22;8.55;;;7.40;;
70150;SDS011;57517;43.562;19.540;2022-12-08T14:22:58;15.10;;;11.10;;
70150;SDS011;57517;43.562;19.540;2022-12-08T14:25:27;9.85;;;7.78;;
70150;SDS011;57517;43.562;19.540;2022-12-08T14:28:00;6.95;;;6.20;;
70150;SDS011;57517;43.562;19.540;2022-12-08T14:30:30;8.57;;;5.05;;
70150;SDS011;57517;43.562;19.540;2022-12-08T14:33:02;7.60;;;4.65;;
70150;SDS011;57517;43.562;19.540;2022-12-08T14:35:33;6.38;;;5.10;;
70150;SDS011;57517;43.562;19.540;2022-12-08T14:38:02;40.72;;;32.42;;
70150;SDS011;57517;43.562;19.540;2022-12-08T14:40:30;8.63;;;6.13;;
70150;SDS011;57517;43.562;19.540;2022-12-08T14:45:44;57.92;;;32.03;;
70150;SDS011;57517;43.562;19.540;2022-12-08T14:53:34;47.00;;;28.85;;
70150;SDS011;57517;43.562;19.540;2022-12-08T14:56:17;22.42;;;15.80;;
70150;SDS011;57517;43.562;19.540;2022-12-08T14:59:16;24.92;;;18.83;;
70150;SDS011;57517;43.562;19.540;2022-12-08T15:02:11;25.30;;;15.60;;
70150;SDS011;57517;43.562;19.540;2022-12-08T15:04:47;20.15;;;16.63;;
70150;SDS011;57517;43.562;19.540;2022-12-08T15:07:36;94.70;;;74.72;;
70150;SDS011;57517;43.562;19.540;2022-12-08T15:10:26;27.08;;;15.85;;
70150;SDS011;57517;43.562;19.540;2022-12-08T15:13:41;34.22;;;26.25;;
70150;SDS011;57517;43.562;19.540;2022-12-08T15:15:53;43.17;;;32.22;;
70150;SDS011;57517;43.562;19.540;2022-12-08T15:18:37;12.38;;;9.52;;
70150;SDS011;57517;43.562;19.540;2022-12-08T15:21:05;14.68;;;11.30;;
70150;SDS011;57517;43.562;19.540;2022-12-08T15:23:41;15.10;;;12.27;;
70150;SDS011;57517;43.562;19.540;2022-12-08T15:26:21;13.70;;;11.68;;
70150;SDS011;57517;43.562;19.540;2022-12-08T15:28:48;16.73;;;12.88;;
70150;SDS011;57517;43.562;19.540;2022-12-08T15:31:16;12.10;;;9.30;;
70150;SDS011;57517;43.562;19.540;2022-12-08T15:33:42;13.98;;;11.10;;
70150;SDS011;57517;43.562;19.540;2022-12-08T15:36:08;17.33;;;13.80;;
70150;SDS011;57517;43.562;19.540;2022-12-08T15:38:34;39.22;;;33.47;;
70150;SDS011;57517;43.562;19.540;2022-12-08T15:41:01;23.95;;;19.40;;
70150;SDS011;57517;43.562;19.540;2022-12-08T15:43:27;20.45;;;17.85;;
70150;SDS011;57517;43.562;19.540;2022-12-08T15:45:54;19.35;;;17.08;;
70150;SDS011;57517;43.562;19.540;2022-12-08T15:48:21;22.50;;;19.42;;
70150;SDS011;57517;43.562;19.540;2022-12-08T15:50:51;29.42;;;25.77;;
70150;SDS011;57517;43.562;19.540;2022-12-08T15:53:18;30.73;;;26.00;;
70150;SDS011;57517;43.562;19.540;2022-12-08T15:55:44;28.45;;;24.20;;
70150;SDS011;57517;43.562;19.540;2022-12-08T15:58:14;28.40;;;22.55;;
70150;SDS011;57517;43.562;19.540;2022-12-08T16:00:44;30.52;;;23.27;;
70150;SDS011;57517;43.562;19.540;2022-12-08T16:03:23;33.30;;;26.67;;
70150;SDS011;57517;43.562;19.540;2022-12-08T16:05:51;34.00;;;28.42;;
70150;SDS011;57517;43.562;19.540;2022-12-08T16:08:17;35.90;;;29.95;;
70150;SDS011;57517;43.562;19.540;2022-12-08T16:10:44;34.85;;;29.48;;
70150;SDS011;57517;43.562;19.540;2022-12-08T16:13:12;46.22;;;36.83;;
70150;SDS011;57517;43.562;19.540;2022-12-08T16:16:00;60.65;;;49.92;;
70150;SDS011;57517;43.562;19.540;2022-12-08T16:18:29;50.95;;;42.85;;
70150;SDS011;57517;43.562;19.540;2022-12-08T16:20:58;50.22;;;42.90;;
70150;SDS011;57517;43.562;19.540;2022-12-08T16:23:25;47.05;;;41.03;;
70150;SDS011;57517;43.562;19.540;2022-12-08T16:25:50;50.17;;;42.83;;